sensor_id;sensor_type;location;lat;lon;timestamp;pressure;altitude;pressure_sealevel;temperature;humidity
26436;BME280;15351;52.408;16.826;2023-07-31T00:00:39;100335.64;;;19.66;73.25
26436;BME280;15351;52.408;16.826;2023-07-31T00:03:25;100330.34;;;19.63;73.39
26436;BME280;15351;52.408;16.826;2023-07-31T00:05:56;100326.48;;;19.65;73.56
26436;BME280;15351;52.408;16.826;2023-07-31T00:08:22;100322.80;;;19.64;73.33
26436;BME280;15351;52.408;16.826;2023-07-31T00:10:51;100326.38;;;19.63;73.58
26436;BME280;15351;52.408;16.826;2023-07-31T00:13:20;100324.66;;;19.63;73.32
26436;BME280;15351;52.408;16.826;2023-07-31T00:15:46;100330.64;;;19.63;73.52
26436;BME280;15351;52.408;16.826;2023-07-31T00:18:13;100334.29;;;19.64;73.55
26436;BME280;15351;52.408;16.826;2023-07-31T00:20:42;100330.50;;;19.64;73.44
26436;BME280;15351;52.408;16.826;2023-07-31T00:23:10;100333.19;;;19.64;73.28
26436;BME280;15351;52.408;16.826;2023-07-31T00:25:40;100329.55;;;19.63;73.37
26436;BME280;15351;52.408;16.826;2023-07-31T00:28:06;100327.24;;;19.62;73.23
26436;BME280;15351;52.408;16.826;2023-07-31T00:30:33;100327.66;;;19.55;73.08
26436;BME280;15351;52.408;16.826;2023-07-31T00:33:02;100333.70;;;19.49;73.22
26436;BME280;15351;52.408;16.826;2023-07-31T00:35:29;100331.10;;;19.44;73.36
26436;BME280;15351;52.408;16.826;2023-07-31T00:38:00;100333.77;;;19.43;73.40
26436;BME280;15351;52.408;16.826;2023-07-31T00:40:27;100333.51;;;19.46;73.51
26436;BME280;15351;52.408;16.826;2023-07-31T00:42:54;100334.33;;;19.46;73.53
26436;BME280;15351;52.408;16.826;2023-07-31T00:45:38;100338.30;;;19.43;73.68
26436;BME280;15351;52.408;16.826;2023-07-31T00:48:06;100336.64;;;19.42;73.77
26436;BME280;15351;52.408;16.826;2023-07-31T00:50:38;100336.73;;;19.42;73.56
26436;BME280;15351;52.408;16.826;2023-07-31T00:53:25;100337.95;;;19.37;73.62
26436;BME280;15351;52.408;16.826;2023-07-31T00:55:51;100338.39;;;19.32;73.64
26436;BME280;15351;52.408;16.826;2023-07-31T00:58:25;100338.30;;;19.32;73.74
26436;BME280;15351;52.408;16.826;2023-07-31T01:00:52;100335.12;;;19.31;74.11
26436;BME280;15351;52.408;16.826;2023-07-31T01:03:22;100330.17;;;19.35;73.99
26436;BME280;15351;52.408;16.826;2023-07-31T01:09:32;100330.81;;;19.41;73.66
26436;BME280;15351;52.408;16.826;2023-07-31T01:12:04;100331.69;;;19.42;73.79
26436;BME280;15351;52.408;16.826;2023-07-31T01:15:10;100331.02;;;19.42;73.44
26436;BME280;15351;52.408;16.826;2023-07-31T01:17:42;100330.43;;;19.40;73.45
26436;BME280;15351;52.408;16.826;2023-07-31T01:20:23;100332.08;;;19.34;73.39
26436;BME280;15351;52.408;16.826;2023-07-31T01:23:33;100335.92;;;19.25;73.50
26436;BME280;15351;52.408;16.826;2023-07-31T01:26:40;100339.31;;;19.21;73.77
26436;BME280;15351;52.408;16.826;2023-07-31T01:29:23;100332.70;;;19.19;74.14
26436;BME280;15351;52.408;16.826;2023-07-31T01:32:02;100329.95;;;19.17;74.11
26436;BME280;15351;52.408;16.826;2023-07-31T01:34:30;100327.77;;;19.13;74.14
26436;BME280;15351;52.408;16.826;2023-07-31T01:37:02;100326.68;;;19.11;74.17
26436;BME280;15351;52.408;16.826;2023-07-31T01:39:29;100327.05;;;19.07;74.18
26436;BME280;15351;52.408;16.826;2023-07-31T01:42:07;100327.63;;;19.02;74.42
26436;BME280;15351;52.408;16.826;2023-07-31T01:44:45;100327.27;;;18.99;74.32
26436;BME280;15351;52.408;16.826;2023-07-31T01:47:22;100325.66;;;18.93;74.50
26436;BME280;15351;52.408;16.826;2023-07-31T01:49:58;100324.58;;;18.92;74.50
26436;BME280;15351;52.408;16.826;2023-07-31T01:52:25;100323.35;;;18.89;74.60
26436;BME280;15351;52.408;16.826;2023-07-31T01:55:21;100323.84;;;18.87;74.56
26436;BME280;15351;52.408;16.826;2023-07-31T01:57:53;100325.80;;;18.83;74.59
26436;BME280;15351;52.408;16.826;2023-07-31T02:00:41;100328.45;;;18.80;75.12
26436;BME280;15351;52.408;16.826;2023-07-31T02:03:12;100325.79;;;18.84;75.01
26436;BME280;15351;52.408;16.826;2023-07-31T02:08:30;100327.11;;;18.79;75.08
26436;BME280;15351;52.408;16.826;2023-07-31T02:11:00;100324.13;;;18.77;75.23
26436;BME280;15351;52.408;16.826;2023-07-31T02:13:26;100323.14;;;18.74;75.17
26436;BME280;15351;52.408;16.826;2023-07-31T02:15:53;100325.51;;;18.70;75.10
26436;BME280;15351;52.408;16.826;2023-07-31T02:18:20;100325.05;;;18.66;75.28
26436;BME280;15351;52.408;16.826;2023-07-31T02:20:52;100322.39;;;18.65;75.42
26436;BME280;15351;52.408;16.826;2023-07-31T02:23:34;100325.66;;;18.58;75.36
26436;BME280;15351;52.408;16.826;2023-07-31T02:26:00;100331.90;;;18.60;75.82
26436;BME280;15351;52.408;16.826;2023-07-31T02:28:28;100332.05;;;18.61;75.71
26436;BME280;15351;52.408;16.826;2023-07-31T02:30:57;100330.26;;;18.61;75.86
26436;BME280;15351;52.408;16.826;2023-07-31T02:33:28;100325.58;;;18.61;75.57
26436;BME280;15351;52.408;16.826;2023-07-31T02:35:55;100329.34;;;18.56;75.61
26436;BME280;15351;52.408;16.826;2023-07-31T02:38:22;100330.70;;;18.52;75.72
26436;BME280;15351;52.408;16.826;2023-07-31T02:40:48;100332.27;;;18.48;75.91
26436;BME280;15351;52.408;16.826;2023-07-31T02:43:16;100327.91;;;18.50;76.18
26436;BME280;15351;52.408;16.826;2023-07-31T02:45:43;100325.23;;;18.55;76.35
26436;BME280;15351;52.408;16.826;2023-07-31T02:48:10;100325.45;;;18.55;76.10
26436;BME280;15351;52.408;16.826;2023-07-31T02:50:38;100328.59;;;18.55;76.09
26436;BME280;15351;52.408;16.826;2023-07-31T02:53:05;100330.74;;;18.58;76.22
26436;BME280;15351;52.408;16.826;2023-07-31T02:55:35;100327.35;;;18.57;76.12
26436;BME280;15351;52.408;16.826;2023-07-31T02:58:06;100327.19;;;18.56;75.93
26436;BME280;15351;52.408;16.826;2023-07-31T03:00:35;100330.80;;;18.52;75.88
26436;BME280;15351;52.408;16.826;2023-07-31T03:03:02;100334.39;;;18.43;76.01
26436;BME280;15351;52.408;16.826;2023-07-31T03:05:28;100338.36;;;18.34;76.20
26436;BME280;15351;52.408;16.826;2023-07-31T03:07:55;100337.23;;;18.24;76.39
26436;BME280;15351;52.408;16.826;2023-07-31T03:10:23;100333.63;;;18.21;76.46
26436;BME280;15351;52.408;16.826;2023-07-31T03:12:50;100334.29;;;18.19;76.85
26436;BME280;15351;52.408;16.826;2023-07-31T03:15:18;100333.89;;;18.16;76.86
26436;BME280;15351;52.408;16.826;2023-07-31T03:17:45;100332.21;;;18.14;76.96
26436;BME280;15351;52.408;16.826;2023-07-31T03:20:13;100330.88;;;18.12;77.01
26436;BME280;15351;52.408;16.826;2023-07-31T03:22:39;100330.59;;;18.12;77.32
26436;BME280;15351;52.408;16.826;2023-07-31T03:25:06;100325.26;;;18.12;77.42
26436;BME280;15351;52.408;16.826;2023-07-31T03:27:33;100325.33;;;18.13;77.15
26436;BME280;15351;52.408;16.826;2023-07-31T03:30:00;100321.59;;;18.15;77.46
26436;BME280;15351;52.408;16.826;2023-07-31T03:32:28;100319.19;;;18.16;77.46
26436;BME280;15351;52.408;16.826;2023-07-31T03:35:05;100322.81;;;18.15;77.48
26436;BME280;15351;52.408;16.826;2023-07-31T03:37:32;100325.21;;;18.12;77.48
26436;BME280;15351;52.408;16.826;2023-07-31T03:40:00;100330.93;;;18.12;77.76
26436;BME280;15351;52.408;16.826;2023-07-31T03:42:27;100328.98;;;18.09;77.80
26436;BME280;15351;52.408;16.826;2023-07-31T03:44:54;100325.70;;;18.07;78.14
26436;BME280;15351;52.408;16.826;2023-07-31T03:47:24;100329.46;;;18.13;78.33
26436;BME280;15351;52.408;16.826;2023-07-31T03:49:51;100326.67;;;18.18;78.11
26436;BME280;15351;52.408;16.826;2023-07-31T03:52:21;100327.20;;;18.21;78.09
26436;BME280;15351;52.408;16.826;2023-07-31T03:54:49;100326.95;;;18.27;78.18
26436;BME280;15351;52.408;16.826;2023-07-31T03:57:17;100327.98;;;18.28;77.90
26436;BME280;15351;52.408;16.826;2023-07-31T03:59:43;100329.15;;;18.26;78.08
26436;BME280;15351;52.408;16.826;2023-07-31T04:02:12;100327.54;;;18.23;77.82
26436;BME280;15351;52.408;16.826;2023-07-31T04:04:40;100327.42;;;18.20;78.05
26436;BME280;15351;52.408;16.826;2023-07-31T04:07:09;100332.61;;;18.13;78.04
26436;BME280;15351;52.408;16.826;2023-07-31T04:09:37;100331.33;;;18.07;78.24
26436;BME280;15351;52.408;16.826;2023-07-31T04:12:04;100335.67;;;18.08;78.76
26436;BME280;15351;52.408;16.826;2023-07-31T04:14:33;100333.33;;;18.12;78.86
26436;BME280;15351;52.408;16.826;2023-07-31T04:17:01;100333.89;;;18.22;79.18
26436;BME280;15351;52.408;16.826;2023-07-31T04:19:28;100332.92;;;18.30;78.74
26436;BME280;15351;52.408;16.826;2023-07-31T04:21:55;100332.52;;;18.36;78.82
26436;BME280;15351;52.408;16.826;2023-07-31T04:24:22;100330.95;;;18.38;78.69
26436;BME280;15351;52.408;16.826;2023-07-31T04:26:54;100332.14;;;18.34;78.55
26436;BME280;15351;52.408;16.826;2023-07-31T04:29:23;100332.26;;;18.26;78.41
26436;BME280;15351;52.408;16.826;2023-07-31T04:31:50;100331.18;;;18.21;78.65
26436;BME280;15351;52.408;16.826;2023-07-31T04:34:17;100330.86;;;18.16;78.70
26436;BME280;15351;52.408;16.826;2023-07-31T04:36:44;100333.34;;;18.20;79.18
26436;BME280;15351;52.408;16.826;2023-07-31T04:39:11;100335.83;;;18.23;79.24
26436;BME280;15351;52.408;16.826;2023-07-31T04:41:40;100335.98;;;18.21;79.31
26436;BME280;15351;52.408;16.826;2023-07-31T04:44:10;100334.83;;;18.22;79.69
26436;BME280;15351;52.408;16.826;2023-07-31T04:46:37;100330.92;;;18.29;79.38
26436;BME280;15351;52.408;16.826;2023-07-31T04:49:04;100331.94;;;18.28;79.26
26436;BME280;15351;52.408;16.826;2023-07-31T04:51:49;100328.18;;;18.23;79.25
26436;BME280;15351;52.408;16.826;2023-07-31T04:54:19;100328.56;;;18.23;79.46
26436;BME280;15351;52.408;16.826;2023-07-31T04:56:45;100331.00;;;18.26;79.77
26436;BME280;15351;52.408;16.826;2023-07-31T04:59:13;100331.76;;;18.31;79.65
26436;BME280;15351;52.408;16.826;2023-07-31T05:01:40;100332.58;;;18.34;79.79
26436;BME280;15351;52.408;16.826;2023-07-31T05:04:12;100323.38;;;18.32;79.54
26436;BME280;15351;52.408;16.826;2023-07-31T05:06:49;100324.75;;;18.33;79.65
26436;BME280;15351;52.408;16.826;2023-07-31T05:09:16;100328.93;;;18.38;79.59
26436;BME280;15351;52.408;16.826;2023-07-31T05:11:42;100328.48;;;18.37;79.51
26436;BME280;15351;52.408;16.826;2023-07-31T05:14:11;100317.14;;;18.36;79.58
26436;BME280;15351;52.408;16.826;2023-07-31T05:16:38;100319.67;;;18.35;79.59
26436;BME280;15351;52.408;16.826;2023-07-31T05:19:05;100313.84;;;18.39;79.94
26436;BME280;15351;52.408;16.826;2023-07-31T05:21:41;100311.05;;;18.48;80.08
26436;BME280;15351;52.408;16.826;2023-07-31T05:24:09;100311.31;;;18.49;79.96
26436;BME280;15351;52.408;16.826;2023-07-31T05:26:36;100312.94;;;18.51;79.87
26436;BME280;15351;52.408;16.826;2023-07-31T05:29:23;100310.09;;;18.53;79.77
26436;BME280;15351;52.408;16.826;2023-07-31T05:31:55;100307.48;;;18.53;79.60
26436;BME280;15351;52.408;16.826;2023-07-31T05:34:24;100307.41;;;18.58;79.76
26436;BME280;15351;52.408;16.826;2023-07-31T05:36:50;100306.98;;;18.63;79.88
26436;BME280;15351;52.408;16.826;2023-07-31T05:39:30;100298.19;;;18.69;79.78
26436;BME280;15351;52.408;16.826;2023-07-31T05:41:57;100296.11;;;18.73;79.81
26436;BME280;15351;52.408;16.826;2023-07-31T05:44:23;100296.47;;;18.83;80.10
26436;BME280;15351;52.408;16.826;2023-07-31T05:46:50;100291.09;;;18.93;79.74
26436;BME280;15351;52.408;16.826;2023-07-31T05:49:19;100288.34;;;18.93;79.31
26436;BME280;15351;52.408;16.826;2023-07-31T05:51:47;100288.23;;;18.96;79.22
26436;BME280;15351;52.408;16.826;2023-07-31T05:54:14;100288.31;;;19.01;79.02
26436;BME280;15351;52.408;16.826;2023-07-31T05:56:42;100289.59;;;19.02;78.90
26436;BME280;15351;52.408;16.826;2023-07-31T05:59:13;100288.24;;;19.08;78.92
26436;BME280;15351;52.408;16.826;2023-07-31T06:01:39;100292.39;;;19.16;78.74
26436;BME280;15351;52.408;16.826;2023-07-31T06:04:10;100292.24;;;19.21;78.75
26436;BME280;15351;52.408;16.826;2023-07-31T06:06:37;100292.20;;;19.30;78.45
26436;BME280;15351;52.408;16.826;2023-07-31T06:09:05;100290.80;;;19.36;78.14
26436;BME280;15351;52.408;16.826;2023-07-31T06:11:40;100292.48;;;19.38;77.64
26436;BME280;15351;52.408;16.826;2023-07-31T06:14:07;100286.23;;;19.39;77.58
26436;BME280;15351;52.408;16.826;2023-07-31T06:16:33;100282.27;;;19.44;77.72
26436;BME280;15351;52.408;16.826;2023-07-31T06:19:01;100281.91;;;19.49;77.62
26436;BME280;15351;52.408;16.826;2023-07-31T06:21:27;100282.12;;;19.51;77.51
26436;BME280;15351;52.408;16.826;2023-07-31T06:23:54;100277.94;;;19.54;77.22
26436;BME280;15351;52.408;16.826;2023-07-31T06:26:21;100276.40;;;19.62;77.24
26436;BME280;15351;52.408;16.826;2023-07-31T06:28:47;100276.88;;;19.71;77.01
26436;BME280;15351;52.408;16.826;2023-07-31T06:31:16;100274.08;;;19.77;76.73
26436;BME280;15351;52.408;16.826;2023-07-31T06:33:48;100273.99;;;19.82;76.37
26436;BME280;15351;52.408;16.826;2023-07-31T06:36:18;100275.39;;;19.86;76.11
26436;BME280;15351;52.408;16.826;2023-07-31T06:38:48;100279.89;;;19.91;75.56
26436;BME280;15351;52.408;16.826;2023-07-31T06:41:14;100280.51;;;19.94;75.21
26436;BME280;15351;52.408;16.826;2023-07-31T06:43:41;100276.23;;;19.97;75.31
26436;BME280;15351;52.408;16.826;2023-07-31T06:46:09;100276.93;;;20.03;75.30
26436;BME280;15351;52.408;16.826;2023-07-31T06:48:44;100273.55;;;20.10;75.12
26436;BME280;15351;52.408;16.826;2023-07-31T06:51:11;100274.81;;;20.15;74.76
26436;BME280;15351;52.408;16.826;2023-07-31T06:53:38;100277.33;;;20.15;74.09
26436;BME280;15351;52.408;16.826;2023-07-31T06:56:05;100277.60;;;20.10;73.92
26436;BME280;15351;52.408;16.826;2023-07-31T06:58:31;100276.25;;;20.06;73.84
26436;BME280;15351;52.408;16.826;2023-07-31T07:00:57;100276.22;;;20.07;74.17
26436;BME280;15351;52.408;16.826;2023-07-31T07:03:24;100277.51;;;20.08;73.79
26436;BME280;15351;52.408;16.826;2023-07-31T07:05:51;100273.94;;;20.06;73.54
26436;BME280;15351;52.408;16.826;2023-07-31T07:08:17;100274.46;;;20.05;73.41
26436;BME280;15351;52.408;16.826;2023-07-31T07:10:44;100277.15;;;20.07;73.37
26436;BME280;15351;52.408;16.826;2023-07-31T07:13:11;100274.21;;;20.11;73.50
26436;BME280;15351;52.408;16.826;2023-07-31T07:15:39;100277.13;;;20.09;73.17
26436;BME280;15351;52.408;16.826;2023-07-31T07:18:07;100271.27;;;20.09;73.30
26436;BME280;15351;52.408;16.826;2023-07-31T07:20:38;100273.75;;;20.16;73.16
26436;BME280;15351;52.408;16.826;2023-07-31T07:23:24;100272.42;;;20.26;72.96
26436;BME280;15351;52.408;16.826;2023-07-31T07:25:54;100272.11;;;20.32;72.56
26436;BME280;15351;52.408;16.826;2023-07-31T07:28:21;100268.21;;;20.32;72.46
26436;BME280;15351;52.408;16.826;2023-07-31T07:30:56;100271.34;;;20.38;72.51
26436;BME280;15351;52.408;16.826;2023-07-31T07:33:24;100274.27;;;20.48;71.98
26436;BME280;15351;52.408;16.826;2023-07-31T07:35:55;100278.11;;;20.55;71.33
26436;BME280;15351;52.408;16.826;2023-07-31T07:38:26;100282.91;;;20.62;71.29
26436;BME280;15351;52.408;16.826;2023-07-31T07:40:53;100284.02;;;20.70;71.34
26436;BME280;15351;52.408;16.826;2023-07-31T07:43:25;100284.38;;;20.79;71.46
26436;BME280;15351;52.408;16.826;2023-07-31T07:45:52;100288.28;;;20.87;71.22
26436;BME280;15351;52.408;16.826;2023-07-31T07:48:19;100291.91;;;20.94;70.64
26436;BME280;15351;52.408;16.826;2023-07-31T07:50:46;100292.98;;;20.95;70.19
26436;BME280;15351;52.408;16.826;2023-07-31T07:53:12;100293.38;;;20.93;69.94
26436;BME280;15351;52.408;16.826;2023-07-31T07:55:40;100289.27;;;20.90;70.15
26436;BME280;15351;52.408;16.826;2023-07-31T07:58:08;100290.20;;;20.88;70.48
26436;BME280;15351;52.408;16.826;2023-07-31T08:00:37;100288.30;;;20.88;70.58
26436;BME280;15351;52.408;16.826;2023-07-31T08:03:05;100288.23;;;20.91;70.63
26436;BME280;15351;52.408;16.826;2023-07-31T08:05:38;100289.70;;;20.98;70.88
26436;BME280;15351;52.408;16.826;2023-07-31T08:08:05;100294.23;;;21.02;70.61
26436;BME280;15351;52.408;16.826;2023-07-31T08:10:31;100288.40;;;21.04;70.55
26436;BME280;15351;52.408;16.826;2023-07-31T08:12:58;100286.53;;;21.07;70.44
26436;BME280;15351;52.408;16.826;2023-07-31T08:15:30;100284.62;;;21.10;70.16
26436;BME280;15351;52.408;16.826;2023-07-31T08:17:57;100285.27;;;21.15;70.06
26436;BME280;15351;52.408;16.826;2023-07-31T08:20:26;100286.17;;;21.21;70.25
26436;BME280;15351;52.408;16.826;2023-07-31T08:22:58;100282.09;;;21.22;70.22
26436;BME280;15351;52.408;16.826;2023-07-31T08:25:27;100284.04;;;21.27;70.17
26436;BME280;15351;52.408;16.826;2023-07-31T08:27:54;100284.73;;;21.31;69.54
26436;BME280;15351;52.408;16.826;2023-07-31T08:30:38;100289.15;;;21.36;69.18
26436;BME280;15351;52.408;16.826;2023-07-31T08:33:05;100290.92;;;21.37;68.76
26436;BME280;15351;52.408;16.826;2023-07-31T08:35:31;100290.35;;;21.35;68.09
26436;BME280;15351;52.408;16.826;2023-07-31T08:37:58;100289.15;;;21.32;68.17
26436;BME280;15351;52.408;16.826;2023-07-31T08:40:24;100289.04;;;21.32;67.98
26436;BME280;15351;52.408;16.826;2023-07-31T08:42:54;100285.80;;;21.32;67.95
26436;BME280;15351;52.408;16.826;2023-07-31T08:45:35;100287.66;;;21.35;68.02
26436;BME280;15351;52.408;16.826;2023-07-31T08:48:04;100286.55;;;21.35;68.18
26436;BME280;15351;52.408;16.826;2023-07-31T08:50:33;100287.56;;;21.36;67.90
26436;BME280;15351;52.408;16.826;2023-07-31T08:53:00;100277.77;;;21.35;67.63
26436;BME280;15351;52.408;16.826;2023-07-31T08:55:35;100275.29;;;21.34;67.46
26436;BME280;15351;52.408;16.826;2023-07-31T08:58:04;100276.30;;;21.36;67.23
26436;BME280;15351;52.408;16.826;2023-07-31T09:00:39;100274.63;;;21.37;67.05
26436;BME280;15351;52.408;16.826;2023-07-31T09:03:17;100277.55;;;21.38;66.68
26436;BME280;15351;52.408;16.826;2023-07-31T09:05:45;100275.94;;;21.41;66.72
26436;BME280;15351;52.408;16.826;2023-07-31T09:08:14;100277.02;;;21.43;66.63
26436;BME280;15351;52.408;16.826;2023-07-31T09:11:04;100274.09;;;21.44;66.64
26436;BME280;15351;52.408;16.826;2023-07-31T09:13:35;100276.60;;;21.45;66.35
26436;BME280;15351;52.408;16.826;2023-07-31T09:16:04;100268.08;;;21.45;66.33
26436;BME280;15351;52.408;16.826;2023-07-31T09:18:31;100269.86;;;21.46;66.26
26436;BME280;15351;52.408;16.826;2023-07-31T09:21:16;100267.59;;;21.46;66.10
26436;BME280;15351;52.408;16.826;2023-07-31T09:23:45;100270.00;;;21.43;66.28
26436;BME280;15351;52.408;16.826;2023-07-31T09:26:37;100270.30;;;21.44;66.48
26436;BME280;15351;52.408;16.826;2023-07-31T09:29:05;100269.77;;;21.45;66.86
26436;BME280;15351;52.408;16.826;2023-07-31T09:31:40;100268.36;;;21.45;67.24
26436;BME280;15351;52.408;16.826;2023-07-31T09:34:08;100273.35;;;21.43;66.93
26436;BME280;15351;52.408;16.826;2023-07-31T09:36:46;100272.71;;;21.38;67.08
26436;BME280;15351;52.408;16.826;2023-07-31T09:39:15;100276.77;;;21.31;67.12
26436;BME280;15351;52.408;16.826;2023-07-31T09:41:55;100273.60;;;21.28;67.60
26436;BME280;15351;52.408;16.826;2023-07-31T09:44:39;100280.05;;;21.20;67.91
26436;BME280;15351;52.408;16.826;2023-07-31T09:47:24;100281.54;;;21.10;68.19
26436;BME280;15351;52.408;16.826;2023-07-31T09:49:51;100282.55;;;21.02;69.06
26436;BME280;15351;52.408;16.826;2023-07-31T09:52:18;100283.30;;;21.02;69.63
26436;BME280;15351;52.408;16.826;2023-07-31T09:54:45;100285.20;;;21.03;70.04
26436;BME280;15351;52.408;16.826;2023-07-31T09:57:26;100280.80;;;21.02;70.39
26436;BME280;15351;52.408;16.826;2023-07-31T10:00:19;100278.71;;;21.00;70.83
26436;BME280;15351;52.408;16.826;2023-07-31T10:02:52;100277.11;;;21.02;71.23
26436;BME280;15351;52.408;16.826;2023-07-31T10:05:35;100269.86;;;21.04;71.74
26436;BME280;15351;52.408;16.826;2023-07-31T10:08:09;100268.80;;;21.04;72.13
26436;BME280;15351;52.408;16.826;2023-07-31T10:10:42;100267.52;;;21.05;72.47
26436;BME280;15351;52.408;16.826;2023-07-31T10:13:30;100261.78;;;21.10;72.78
26436;BME280;15351;52.408;16.826;2023-07-31T10:16:01;100261.63;;;21.15;73.17
26436;BME280;15351;52.408;16.826;2023-07-31T10:18:34;100259.67;;;21.19;73.38
26436;BME280;15351;52.408;16.826;2023-07-31T10:21:03;100255.05;;;21.21;73.68
26436;BME280;15351;52.408;16.826;2023-07-31T10:23:40;100251.33;;;21.24;73.63
26436;BME280;15351;52.408;16.826;2023-07-31T10:26:27;100250.48;;;21.21;72.95
26436;BME280;15351;52.408;16.826;2023-07-31T10:28:54;100249.34;;;21.19;72.93
26436;BME280;15351;52.408;16.826;2023-07-31T10:31:24;100248.14;;;21.16;73.06
26436;BME280;15351;52.408;16.826;2023-07-31T10:33:56;100247.63;;;21.15;73.14
26436;BME280;15351;52.408;16.826;2023-07-31T10:36:29;100245.07;;;21.11;73.10
26436;BME280;15351;52.408;16.826;2023-07-31T10:39:35;100241.98;;;21.08;73.23
26436;BME280;15351;52.408;16.826;2023-07-31T10:45:50;100238.54;;;21.06;73.79
26436;BME280;15351;52.408;16.826;2023-07-31T10:48:25;100236.81;;;21.07;73.88
26436;BME280;15351;52.408;16.826;2023-07-31T10:51:12;100237.73;;;21.06;73.75
26436;BME280;15351;52.408;16.826;2023-07-31T10:57:22;100228.77;;;21.11;74.16
26436;BME280;15351;52.408;16.826;2023-07-31T11:00:21;100230.09;;;21.11;74.12
26436;BME280;15351;52.408;16.826;2023-07-31T11:06:04;100223.42;;;21.15;74.40
26436;BME280;15351;52.408;16.826;2023-07-31T11:08:40;100219.34;;;21.18;74.63
26436;BME280;15351;52.408;16.826;2023-07-31T11:11:18;100216.81;;;21.20;74.60
26436;BME280;15351;52.408;16.826;2023-07-31T11:13:54;100213.08;;;21.22;74.55
26436;BME280;15351;52.408;16.826;2023-07-31T11:16:22;100213.95;;;21.22;74.37
26436;BME280;15351;52.408;16.826;2023-07-31T11:19:10;100209.26;;;21.23;74.72
26436;BME280;15351;52.408;16.826;2023-07-31T11:21:37;100207.82;;;21.26;74.77
26436;BME280;15351;52.408;16.826;2023-07-31T11:24:17;100207.34;;;21.24;74.83
26436;BME280;15351;52.408;16.826;2023-07-31T11:26:53;100201.39;;;21.20;74.58
26436;BME280;15351;52.408;16.826;2023-07-31T11:29:33;100198.58;;;21.19;74.53
26436;BME280;15351;52.408;16.826;2023-07-31T11:32:23;100198.42;;;21.23;74.78
26436;BME280;15351;52.408;16.826;2023-07-31T11:34:59;100195.88;;;21.30;74.84
26436;BME280;15351;52.408;16.826;2023-07-31T11:37:43;100196.63;;;21.32;74.90
26436;BME280;15351;52.408;16.826;2023-07-31T11:40:13;100188.07;;;21.32;74.72
26436;BME280;15351;52.408;16.826;2023-07-31T11:42:50;100186.60;;;21.27;74.64
26436;BME280;15351;52.408;16.826;2023-07-31T11:53:01;100176.34;;;21.21;74.57
26436;BME280;15351;52.408;16.826;2023-07-31T11:55:38;100177.60;;;21.24;74.64
26436;BME280;15351;52.408;16.826;2023-07-31T12:01:40;100169.86;;;21.22;75.07
26436;BME280;15351;52.408;16.826;2023-07-31T12:05:00;100176.73;;;21.27;75.16
26436;BME280;15351;52.408;16.826;2023-07-31T12:11:17;100171.91;;;21.28;75.01
26436;BME280;15351;52.408;16.826;2023-07-31T12:13:54;100171.80;;;21.32;74.99
26436;BME280;15351;52.408;16.826;2023-07-31T12:17:14;100164.84;;;21.32;74.97
26436;BME280;15351;52.408;16.826;2023-07-31T12:20:55;100165.99;;;21.39;74.99
26436;BME280;15351;52.408;16.826;2023-07-31T12:24:31;100161.88;;;21.55;75.27
26436;BME280;15351;52.408;16.826;2023-07-31T12:28:12;100151.06;;;21.71;74.77
26436;BME280;15351;52.408;16.826;2023-07-31T12:31:02;100148.45;;;21.76;74.20
26436;BME280;15351;52.408;16.826;2023-07-31T12:34:26;100147.80;;;21.81;73.77
26436;BME280;15351;52.408;16.826;2023-07-31T12:37:47;100156.16;;;21.80;73.68
26436;BME280;15351;52.408;16.826;2023-07-31T12:40:58;100156.34;;;21.77;73.12
26436;BME280;15351;52.408;16.826;2023-07-31T12:46:51;100146.70;;;21.73;72.49
26436;BME280;15351;52.408;16.826;2023-07-31T12:49:20;100143.98;;;21.72;72.46
26436;BME280;15351;52.408;16.826;2023-07-31T12:55:26;100136.70;;;21.74;72.18
26436;BME280;15351;52.408;16.826;2023-07-31T13:01:29;100127.63;;;21.76;71.65
26436;BME280;15351;52.408;16.826;2023-07-31T13:03:57;100120.41;;;21.67;71.60
26436;BME280;15351;52.408;16.826;2023-07-31T13:06:55;100120.34;;;21.66;71.62
26436;BME280;15351;52.408;16.826;2023-07-31T13:13:30;100114.45;;;21.76;71.89
26436;BME280;15351;52.408;16.826;2023-07-31T13:16:10;100107.87;;;21.77;71.81
26436;BME280;15351;52.408;16.826;2023-07-31T13:19:34;100096.06;;;21.83;71.96
26436;BME280;15351;52.408;16.826;2023-07-31T13:25:11;100088.45;;;21.85;71.50
26436;BME280;15351;52.408;16.826;2023-07-31T13:27:41;100084.77;;;21.85;71.20
26436;BME280;15351;52.408;16.826;2023-07-31T13:30:14;100084.39;;;21.84;71.33
26436;BME280;15351;52.408;16.826;2023-07-31T13:32:57;100079.45;;;21.86;71.54
26436;BME280;15351;52.408;16.826;2023-07-31T13:35:24;100085.11;;;21.85;71.37
26436;BME280;15351;52.408;16.826;2023-07-31T13:37:58;100081.65;;;21.86;71.19
26436;BME280;15351;52.408;16.826;2023-07-31T13:40:31;100080.33;;;21.86;71.02
26436;BME280;15351;52.408;16.826;2023-07-31T13:43:00;100078.71;;;21.83;70.98
26436;BME280;15351;52.408;16.826;2023-07-31T13:45:57;100072.20;;;21.76;70.94
26436;BME280;15351;52.408;16.826;2023-07-31T13:48:51;100084.11;;;21.80;71.10
26436;BME280;15351;52.408;16.826;2023-07-31T13:51:50;100088.17;;;21.79;70.82
26436;BME280;15351;52.408;16.826;2023-07-31T13:54:22;100088.34;;;21.80;70.64
26436;BME280;15351;52.408;16.826;2023-07-31T13:57:21;100084.92;;;21.78;70.67
26436;BME280;15351;52.408;16.826;2023-07-31T14:02:28;100078.52;;;21.92;71.07
26436;BME280;15351;52.408;16.826;2023-07-31T14:05:01;100074.30;;;22.01;71.30